Devine, Texas
Current Conditions -  °F | °C
As of 8:55 AM on Sunday 21 Dec 2014 (Local Time) from KCVB Reporting Station
Haze Haze  
Wind Chill: 51°   Ceiling: 1500
Heat Index: 51°   Visibility: 5mi
Dew Point: 49°   Wind: 6mph
Humidity: 92%   Direction: 270°W
Pressure: 30.13"   Gusts: NA
Location:  29.14°N, 98.91°W
Report Text: KCVB 211455Z AUTO 27005KT 5SM BR OVC015 11/10 A3013 RMK AO2 T01080095
Loading
Personal Weather Stations






























Interactive Weather Map New forecast layout! Learn more

10-Day Weather Forecast

Advertisements
Track Severe Weather on mobile